sensor_id;sensor_type;location;lat;lon;timestamp;P1;durP1;ratioP1;P2;durP2;ratioP2
43527;SDS011;52359;42.658;23.320;2022-09-09T00:00:47;10.93;;;8.05;;
43527;SDS011;52359;42.658;23.320;2022-09-09T00:03:17;13.07;;;7.90;;
43527;SDS011;52359;42.658;23.320;2022-09-09T00:08:14;15.77;;;7.95;;
43527;SDS011;52359;42.658;23.320;2022-09-09T00:10:43;17.17;;;8.75;;
43527;SDS011;52359;42.658;23.320;2022-09-09T00:15:43;9.95;;;8.00;;
43527;SDS011;52359;42.658;23.320;2022-09-09T00:21:20;9.90;;;7.80;;
43527;SDS011;52359;42.658;23.320;2022-09-09T00:23:52;15.77;;;8.20;;
43527;SDS011;52359;42.658;23.320;2022-09-09T00:26:35;13.50;;;8.73;;
43527;SDS011;52359;42.658;23.320;2022-09-09T00:31:36;16.13;;;9.23;;
43527;SDS011;52359;42.658;23.320;2022-09-09T00:34:12;12.27;;;8.68;;
43527;SDS011;52359;42.658;23.320;2022-09-09T00:36:39;14.88;;;7.75;;
43527;SDS011;52359;42.658;23.320;2022-09-09T00:39:05;11.25;;;8.38;;
43527;SDS011;52359;42.658;23.320;2022-09-09T00:49:29;10.68;;;7.68;;
43527;SDS011;52359;42.658;23.320;2022-09-09T00:57:59;15.00;;;8.02;;
43527;SDS011;52359;42.658;23.320;2022-09-09T01:00:26;12.95;;;8.00;;
43527;SDS011;52359;42.658;23.320;2022-09-09T01:05:46;16.55;;;8.43;;
43527;SDS011;52359;42.658;23.320;2022-09-09T01:11:00;14.13;;;8.57;;
43527;SDS011;52359;42.658;23.320;2022-09-09T01:13:31;14.63;;;8.05;;
43527;SDS011;52359;42.658;23.320;2022-09-09T01:15:59;13.60;;;8.10;;
43527;SDS011;52359;42.658;23.320;2022-09-09T01:18:35;14.77;;;8.25;;
43527;SDS011;52359;42.658;23.320;2022-09-09T01:26:44;14.80;;;8.25;;
43527;SDS011;52359;42.658;23.320;2022-09-09T01:29:12;10.90;;;8.40;;
43527;SDS011;52359;42.658;23.320;2022-09-09T01:31:52;13.02;;;8.32;;
43527;SDS011;52359;42.658;23.320;2022-09-09T01:34:22;15.15;;;8.32;;
43527;SDS011;52359;42.658;23.320;2022-09-09T01:36:57;13.38;;;8.23;;
43527;SDS011;52359;42.658;23.320;2022-09-09T01:39:29;10.43;;;8.50;;
43527;SDS011;52359;42.658;23.320;2022-09-09T01:41:56;11.98;;;7.40;;
43527;SDS011;52359;42.658;23.320;2022-09-09T01:44:22;11.18;;;7.90;;
43527;SDS011;52359;42.658;23.320;2022-09-09T01:46:49;11.02;;;7.28;;
43527;SDS011;52359;42.658;23.320;2022-09-09T01:49:15;9.50;;;7.05;;
43527;SDS011;52359;42.658;23.320;2022-09-09T01:51:42;11.32;;;7.70;;
43527;SDS011;52359;42.658;23.320;2022-09-09T01:54:08;9.50;;;7.18;;
43527;SDS011;52359;42.658;23.320;2022-09-09T01:56:38;12.52;;;7.50;;
43527;SDS011;52359;42.658;23.320;2022-09-09T01:59:38;12.55;;;7.35;;
43527;SDS011;52359;42.658;23.320;2022-09-09T02:02:17;9.80;;;7.80;;
43527;SDS011;52359;42.658;23.320;2022-09-09T02:04:47;17.80;;;9.47;;
43527;SDS011;52359;42.658;23.320;2022-09-09T02:09:44;12.25;;;8.48;;
43527;SDS011;52359;42.658;23.320;2022-09-09T02:12:14;14.10;;;8.95;;
43527;SDS011;52359;42.658;23.320;2022-09-09T02:14:47;18.17;;;10.10;;
43527;SDS011;52359;42.658;23.320;2022-09-09T02:17:22;16.95;;;8.00;;
43527;SDS011;52359;42.658;23.320;2022-09-09T02:19:59;17.90;;;7.80;;
43527;SDS011;52359;42.658;23.320;2022-09-09T02:22:31;20.27;;;7.90;;
43527;SDS011;52359;42.658;23.320;2022-09-09T02:24:59;14.35;;;8.18;;
43527;SDS011;52359;42.658;23.320;2022-09-09T02:27:25;17.50;;;8.85;;
43527;SDS011;52359;42.658;23.320;2022-09-09T02:29:51;13.85;;;7.93;;
43527;SDS011;52359;42.658;23.320;2022-09-09T02:32:20;15.00;;;8.65;;
43527;SDS011;52359;42.658;23.320;2022-09-09T02:34:49;12.27;;;8.93;;
43527;SDS011;52359;42.658;23.320;2022-09-09T02:37:21;14.70;;;8.52;;
43527;SDS011;52359;42.658;23.320;2022-09-09T02:39:50;16.33;;;8.52;;
43527;SDS011;52359;42.658;23.320;2022-09-09T02:42:16;13.15;;;9.65;;
43527;SDS011;52359;42.658;23.320;2022-09-09T02:44:41;18.25;;;9.18;;
43527;SDS011;52359;42.658;23.320;2022-09-09T02:47:15;15.88;;;9.25;;
43527;SDS011;52359;42.658;23.320;2022-09-09T02:50:05;14.95;;;9.48;;
43527;SDS011;52359;42.658;23.320;2022-09-09T02:55:20;13.20;;;9.00;;
43527;SDS011;52359;42.658;23.320;2022-09-09T02:57:51;16.63;;;9.25;;
43527;SDS011;52359;42.658;23.320;2022-09-09T03:00:23;22.10;;;9.23;;
43527;SDS011;52359;42.658;23.320;2022-09-09T03:02:50;13.57;;;9.15;;
43527;SDS011;52359;42.658;23.320;2022-09-09T03:05:16;16.58;;;9.90;;
43527;SDS011;52359;42.658;23.320;2022-09-09T03:07:42;14.02;;;10.00;;
43527;SDS011;52359;42.658;23.320;2022-09-09T03:10:08;13.00;;;9.32;;
43527;SDS011;52359;42.658;23.320;2022-09-09T03:12:35;14.15;;;9.57;;
43527;SDS011;52359;42.658;23.320;2022-09-09T03:15:01;28.65;;;10.73;;
43527;SDS011;52359;42.658;23.320;2022-09-09T03:17:27;23.85;;;10.55;;
43527;SDS011;52359;42.658;23.320;2022-09-09T03:19:53;20.80;;;9.85;;
43527;SDS011;52359;42.658;23.320;2022-09-09T03:22:20;19.45;;;9.75;;
43527;SDS011;52359;42.658;23.320;2022-09-09T03:24:46;46.75;;;10.45;;
43527;SDS011;52359;42.658;23.320;2022-09-09T03:27:12;25.85;;;10.82;;
43527;SDS011;52359;42.658;23.320;2022-09-09T03:29:39;21.52;;;8.75;;
43527;SDS011;52359;42.658;23.320;2022-09-09T03:32:05;22.05;;;8.23;;
43527;SDS011;52359;42.658;23.320;2022-09-09T03:34:31;23.40;;;9.70;;
43527;SDS011;52359;42.658;23.320;2022-09-09T03:36:56;17.85;;;9.25;;
43527;SDS011;52359;42.658;23.320;2022-09-09T03:39:22;32.17;;;10.20;;
43527;SDS011;52359;42.658;23.320;2022-09-09T03:41:48;21.80;;;9.15;;
43527;SDS011;52359;42.658;23.320;2022-09-09T03:44:14;14.57;;;9.70;;
43527;SDS011;52359;42.658;23.320;2022-09-09T03:46:40;15.30;;;8.82;;
43527;SDS011;52359;42.658;23.320;2022-09-09T03:49:05;18.15;;;9.30;;
43527;SDS011;52359;42.658;23.320;2022-09-09T03:51:31;32.95;;;9.85;;
43527;SDS011;52359;42.658;23.320;2022-09-09T03:54:01;16.13;;;8.60;;
43527;SDS011;52359;42.658;23.320;2022-09-09T03:56:30;11.07;;;8.55;;
43527;SDS011;52359;42.658;23.320;2022-09-09T03:58:56;18.38;;;8.82;;
43527;SDS011;52359;42.658;23.320;2022-09-09T04:01:22;16.38;;;7.93;;
43527;SDS011;52359;42.658;23.320;2022-09-09T04:03:48;13.07;;;9.18;;
43527;SDS011;52359;42.658;23.320;2022-09-09T04:06:15;16.98;;;10.10;;
43527;SDS011;52359;42.658;23.320;2022-09-09T04:08:42;17.77;;;10.02;;
43527;SDS011;52359;42.658;23.320;2022-09-09T04:11:09;12.30;;;9.65;;
43527;SDS011;52359;42.658;23.320;2022-09-09T04:13:36;52.40;;;13.00;;
43527;SDS011;52359;42.658;23.320;2022-09-09T04:16:04;44.33;;;11.82;;
43527;SDS011;52359;42.658;23.320;2022-09-09T04:18:30;51.00;;;12.43;;
43527;SDS011;52359;42.658;23.320;2022-09-09T04:20:57;50.10;;;12.48;;
43527;SDS011;52359;42.658;23.320;2022-09-09T04:23:29;37.75;;;11.10;;
43527;SDS011;52359;42.658;23.320;2022-09-09T04:25:56;38.80;;;10.93;;
43527;SDS011;52359;42.658;23.320;2022-09-09T04:28:23;31.52;;;10.90;;
43527;SDS011;52359;42.658;23.320;2022-09-09T04:30:49;23.05;;;9.48;;
43527;SDS011;52359;42.658;23.320;2022-09-09T04:33:15;41.10;;;11.10;;
43527;SDS011;52359;42.658;23.320;2022-09-09T04:35:46;36.40;;;10.82;;
43527;SDS011;52359;42.658;23.320;2022-09-09T04:38:12;50.38;;;10.68;;
43527;SDS011;52359;42.658;23.320;2022-09-09T04:40:39;42.92;;;11.95;;
43527;SDS011;52359;42.658;23.320;2022-09-09T04:43:08;28.50;;;11.13;;
43527;SDS011;52359;42.658;23.320;2022-09-09T04:45:34;33.50;;;10.40;;
43527;SDS011;52359;42.658;23.320;2022-09-09T04:48:00;32.25;;;11.02;;
43527;SDS011;52359;42.658;23.320;2022-09-09T04:50:27;37.90;;;11.88;;
43527;SDS011;52359;42.658;23.320;2022-09-09T04:52:53;31.83;;;11.27;;
43527;SDS011;52359;42.658;23.320;2022-09-09T04:55:19;39.35;;;11.55;;
43527;SDS011;52359;42.658;23.320;2022-09-09T04:57:45;29.02;;;11.93;;
43527;SDS011;52359;42.658;23.320;2022-09-09T05:00:11;22.88;;;10.20;;
43527;SDS011;52359;42.658;23.320;2022-09-09T05:02:38;22.60;;;10.40;;
43527;SDS011;52359;42.658;23.320;2022-09-09T05:05:04;20.80;;;11.68;;
43527;SDS011;52359;42.658;23.320;2022-09-09T05:07:31;18.52;;;10.90;;
43527;SDS011;52359;42.658;23.320;2022-09-09T05:09:56;21.15;;;9.55;;
43527;SDS011;52359;42.658;23.320;2022-09-09T05:12:23;19.88;;;12.20;;
43527;SDS011;52359;42.658;23.320;2022-09-09T05:14:52;28.75;;;11.65;;
43527;SDS011;52359;42.658;23.320;2022-09-09T05:17:17;25.85;;;11.52;;
43527;SDS011;52359;42.658;23.320;2022-09-09T05:19:43;17.40;;;10.77;;
43527;SDS011;52359;42.658;23.320;2022-09-09T05:22:09;22.73;;;11.52;;
43527;SDS011;52359;42.658;23.320;2022-09-09T05:24:36;30.98;;;11.80;;
43527;SDS011;52359;42.658;23.320;2022-09-09T05:27:03;29.00;;;12.75;;
43527;SDS011;52359;42.658;23.320;2022-09-09T05:29:31;34.58;;;12.32;;
43527;SDS011;52359;42.658;23.320;2022-09-09T05:31:58;30.13;;;10.88;;
43527;SDS011;52359;42.658;23.320;2022-09-09T05:34:24;16.58;;;10.77;;
43527;SDS011;52359;42.658;23.320;2022-09-09T05:36:50;24.08;;;11.40;;
43527;SDS011;52359;42.658;23.320;2022-09-09T05:39:17;19.77;;;10.70;;
43527;SDS011;52359;42.658;23.320;2022-09-09T05:41:43;18.63;;;10.40;;
43527;SDS011;52359;42.658;23.320;2022-09-09T05:44:09;22.65;;;10.77;;
43527;SDS011;52359;42.658;23.320;2022-09-09T05:46:34;19.85;;;10.40;;
43527;SDS011;52359;42.658;23.320;2022-09-09T05:49:01;26.05;;;10.35;;
43527;SDS011;52359;42.658;23.320;2022-09-09T05:51:27;11.85;;;9.77;;
43527;SDS011;52359;42.658;23.320;2022-09-09T05:53:55;19.45;;;9.57;;
43527;SDS011;52359;42.658;23.320;2022-09-09T05:56:24;25.08;;;9.68;;
43527;SDS011;52359;42.658;23.320;2022-09-09T05:58:54;19.17;;;9.15;;
43527;SDS011;52359;42.658;23.320;2022-09-09T06:01:25;11.65;;;8.15;;
43527;SDS011;52359;42.658;23.320;2022-09-09T06:03:53;14.80;;;8.02;;
43527;SDS011;52359;42.658;23.320;2022-09-09T06:06:23;13.23;;;7.55;;
43527;SDS011;52359;42.658;23.320;2022-09-09T06:08:54;20.20;;;8.93;;
43527;SDS011;52359;42.658;23.320;2022-09-09T06:11:29;15.43;;;7.70;;
43527;SDS011;52359;42.658;23.320;2022-09-09T06:13:59;18.95;;;9.27;;
43527;SDS011;52359;42.658;23.320;2022-09-09T06:16:26;11.10;;;6.03;;
43527;SDS011;52359;42.658;23.320;2022-09-09T06:18:53;11.98;;;6.97;;
43527;SDS011;52359;42.658;23.320;2022-09-09T06:21:25;9.65;;;6.70;;
43527;SDS011;52359;42.658;23.320;2022-09-09T06:24:05;18.80;;;7.75;;
43527;SDS011;52359;42.658;23.320;2022-09-09T06:26:33;24.33;;;7.72;;
43527;SDS011;52359;42.658;23.320;2022-09-09T06:29:00;27.30;;;6.65;;
43527;SDS011;52359;42.658;23.320;2022-09-09T06:31:29;27.40;;;6.78;;
43527;SDS011;52359;42.658;23.320;2022-09-09T06:33:56;16.05;;;6.20;;
43527;SDS011;52359;42.658;23.320;2022-09-09T06:36:30;13.75;;;7.03;;
43527;SDS011;52359;42.658;23.320;2022-09-09T06:38:57;15.43;;;6.22;;
43527;SDS011;52359;42.658;23.320;2022-09-09T06:41:29;20.33;;;6.47;;
43527;SDS011;52359;42.658;23.320;2022-09-09T06:43:58;15.52;;;6.57;;
43527;SDS011;52359;42.658;23.320;2022-09-09T06:46:26;16.25;;;6.07;;
43527;SDS011;52359;42.658;23.320;2022-09-09T06:48:53;18.52;;;6.72;;
43527;SDS011;52359;42.658;23.320;2022-09-09T06:51:34;21.33;;;6.93;;
43527;SDS011;52359;42.658;23.320;2022-09-09T06:54:09;17.80;;;7.00;;
43527;SDS011;52359;42.658;23.320;2022-09-09T06:56:36;19.58;;;6.82;;
43527;SDS011;52359;42.658;23.320;2022-09-09T06:59:08;13.88;;;7.25;;
43527;SDS011;52359;42.658;23.320;2022-09-09T07:01:39;13.30;;;5.97;;
43527;SDS011;52359;42.658;23.320;2022-09-09T07:04:06;15.77;;;6.40;;
43527;SDS011;52359;42.658;23.320;2022-09-09T07:06:34;13.82;;;5.80;;
43527;SDS011;52359;42.658;23.320;2022-09-09T07:09:06;12.48;;;6.00;;
43527;SDS011;52359;42.658;23.320;2022-09-09T07:12:06;16.92;;;6.57;;
43527;SDS011;52359;42.658;23.320;2022-09-09T07:14:26;13.40;;;6.07;;
43527;SDS011;52359;42.658;23.320;2022-09-09T07:16:52;14.13;;;6.10;;
43527;SDS011;52359;42.658;23.320;2022-09-09T07:19:18;20.88;;;5.78;;
43527;SDS011;52359;42.658;23.320;2022-09-09T07:21:44;17.05;;;6.10;;
43527;SDS011;52359;42.658;23.320;2022-09-09T07:24:10;11.95;;;6.30;;
43527;SDS011;52359;42.658;23.320;2022-09-09T07:26:37;20.67;;;6.57;;
43527;SDS011;52359;42.658;23.320;2022-09-09T07:29:03;16.85;;;6.05;;
43527;SDS011;52359;42.658;23.320;2022-09-09T07:31:31;10.90;;;6.15;;
43527;SDS011;52359;42.658;23.320;2022-09-09T07:33:57;8.40;;;5.47;;
43527;SDS011;52359;42.658;23.320;2022-09-09T07:36:28;14.07;;;6.05;;
43527;SDS011;52359;42.658;23.320;2022-09-09T07:38:55;10.98;;;5.63;;
43527;SDS011;52359;42.658;23.320;2022-09-09T07:41:29;20.23;;;6.32;;
43527;SDS011;52359;42.658;23.320;2022-09-09T07:43:57;13.65;;;5.90;;
43527;SDS011;52359;42.658;23.320;2022-09-09T07:46:24;14.65;;;6.22;;
43527;SDS011;52359;42.658;23.320;2022-09-09T07:48:51;35.00;;;6.38;;
43527;SDS011;52359;42.658;23.320;2022-09-09T07:51:19;24.10;;;7.57;;
43527;SDS011;52359;42.658;23.320;2022-09-09T07:53:46;17.63;;;5.82;;
43527;SDS011;52359;42.658;23.320;2022-09-09T07:56:14;14.73;;;5.95;;
43527;SDS011;52359;42.658;23.320;2022-09-09T07:58:42;19.55;;;5.57;;
43527;SDS011;52359;42.658;23.320;2022-09-09T08:03:34;11.32;;;5.43;;
43527;SDS011;52359;42.658;23.320;2022-09-09T08:06:01;16.67;;;5.47;;
43527;SDS011;52359;42.658;23.320;2022-09-09T08:08:28;15.18;;;7.03;;
43527;SDS011;52359;42.658;23.320;2022-09-09T08:11:00;14.75;;;5.63;;
43527;SDS011;52359;42.658;23.320;2022-09-09T08:13:27;10.82;;;5.07;;
43527;SDS011;52359;42.658;23.320;2022-09-09T08:15:53;14.80;;;5.40;;
43527;SDS011;52359;42.658;23.320;2022-09-09T08:18:19;10.95;;;5.35;;
43527;SDS011;52359;42.658;23.320;2022-09-09T08:20:46;14.60;;;5.32;;
43527;SDS011;52359;42.658;23.320;2022-09-09T08:23:12;15.23;;;5.45;;
43527;SDS011;52359;42.658;23.320;2022-09-09T08:25:38;14.38;;;5.60;;
43527;SDS011;52359;42.658;23.320;2022-09-09T08:28:04;10.30;;;4.75;;
43527;SDS011;52359;42.658;23.320;2022-09-09T08:30:30;13.02;;;4.88;;
43527;SDS011;52359;42.658;23.320;2022-09-09T08:32:56;12.60;;;4.93;;
43527;SDS011;52359;42.658;23.320;2022-09-09T08:35:24;8.98;;;4.93;;
43527;SDS011;52359;42.658;23.320;2022-09-09T08:37:53;18.17;;;4.93;;
43527;SDS011;52359;42.658;23.320;2022-09-09T08:40:21;16.73;;;4.90;;
43527;SDS011;52359;42.658;23.320;2022-09-09T08:42:49;12.20;;;4.65;;
43527;SDS011;52359;42.658;23.320;2022-09-09T08:53:01;10.43;;;4.35;;
43527;SDS011;52359;42.658;23.320;2022-09-09T08:57:55;12.32;;;4.05;;
43527;SDS011;52359;42.658;23.320;2022-09-09T09:00:22;12.90;;;4.40;;
43527;SDS011;52359;42.658;23.320;2022-09-09T09:05:44;8.23;;;4.10;;
43527;SDS011;52359;42.658;23.320;2022-09-09T09:08:16;10.98;;;4.15;;
43527;SDS011;52359;42.658;23.320;2022-09-09T09:10:48;7.45;;;3.80;;
43527;SDS011;52359;42.658;23.320;2022-09-09T09:15:52;11.20;;;4.10;;
43527;SDS011;52359;42.658;23.320;2022-09-09T09:18:19;6.75;;;4.47;;
43527;SDS011;52359;42.658;23.320;2022-09-09T09:23:15;7.15;;;4.18;;
43527;SDS011;52359;42.658;23.320;2022-09-09T09:25:43;13.27;;;4.65;;
43527;SDS011;52359;42.658;23.320;2022-09-09T09:28:16;9.70;;;4.40;;
43527;SDS011;52359;42.658;23.320;2022-09-09T09:30:50;4.93;;;3.88;;
43527;SDS011;52359;42.658;23.320;2022-09-09T09:33:20;18.88;;;5.18;;
43527;SDS011;52359;42.658;23.320;2022-09-09T09:35:50;18.52;;;4.50;;
43527;SDS011;52359;42.658;23.320;2022-09-09T09:38:24;9.98;;;4.50;;
43527;SDS011;52359;42.658;23.320;2022-09-09T09:40:53;12.38;;;4.75;;
43527;SDS011;52359;42.658;23.320;2022-09-09T09:43:29;7.30;;;4.10;;
43527;SDS011;52359;42.658;23.320;2022-09-09T09:45:56;16.92;;;4.95;;
43527;SDS011;52359;42.658;23.320;2022-09-09T09:48:23;12.70;;;4.55;;
43527;SDS011;52359;42.658;23.320;2022-09-09T09:50:50;6.97;;;4.10;;
43527;SDS011;52359;42.658;23.320;2022-09-09T09:53:36;10.02;;;4.85;;
43527;SDS011;52359;42.658;23.320;2022-09-09T09:56:05;11.00;;;6.72;;
43527;SDS011;52359;42.658;23.320;2022-09-09T09:58:52;8.05;;;4.43;;
43527;SDS011;52359;42.658;23.320;2022-09-09T10:01:20;6.45;;;4.30;;
43527;SDS011;52359;42.658;23.320;2022-09-09T10:03:53;5.65;;;4.20;;
43527;SDS011;52359;42.658;23.320;2022-09-09T10:06:33;13.57;;;3.83;;
43527;SDS011;52359;42.658;23.320;2022-09-09T10:08:59;12.70;;;5.65;;
43527;SDS011;52359;42.658;23.320;2022-09-09T10:11:39;10.73;;;4.47;;
43527;SDS011;52359;42.658;23.320;2022-09-09T10:17:23;10.15;;;5.55;;
43527;SDS011;52359;42.658;23.320;2022-09-09T10:19:30;11.07;;;4.45;;
43527;SDS011;52359;42.658;23.320;2022-09-09T10:26:58;5.40;;;4.47;;
43527;SDS011;52359;42.658;23.320;2022-09-09T10:37:13;43.95;;;5.32;;
43527;SDS011;52359;42.658;23.320;2022-09-09T10:39:42;35.67;;;6.00;;
43527;SDS011;52359;42.658;23.320;2022-09-09T10:42:15;28.98;;;7.03;;
43527;SDS011;52359;42.658;23.320;2022-09-09T10:47:21;50.85;;;7.30;;
43527;SDS011;52359;42.658;23.320;2022-09-09T10:52:36;12.80;;;4.75;;
43527;SDS011;52359;42.658;23.320;2022-09-09T10:55:09;13.70;;;5.97;;
43527;SDS011;52359;42.658;23.320;2022-09-09T10:57:44;8.48;;;5.32;;
43527;SDS011;52359;42.658;23.320;2022-09-09T11:00:20;12.40;;;6.03;;
43527;SDS011;52359;42.658;23.320;2022-09-09T11:03:01;13.07;;;6.78;;
43527;SDS011;52359;42.658;23.320;2022-09-09T11:13:28;21.55;;;6.43;;
43527;SDS011;52359;42.658;23.320;2022-09-09T11:18:54;12.50;;;6.45;;
43527;SDS011;52359;42.658;23.320;2022-09-09T11:21:46;19.02;;;6.82;;
43527;SDS011;52359;42.658;23.320;2022-09-09T11:27:05;21.33;;;6.90;;
43527;SDS011;52359;42.658;23.320;2022-09-09T11:30:15;20.95;;;8.30;;
43527;SDS011;52359;42.658;23.320;2022-09-09T11:38:26;25.08;;;6.78;;
43527;SDS011;52359;42.658;23.320;2022-09-09T11:41:34;16.35;;;6.30;;
43527;SDS011;52359;42.658;23.320;2022-09-09T11:44:09;24.33;;;7.00;;
43527;SDS011;52359;42.658;23.320;2022-09-09T11:46:43;24.47;;;7.17;;
43527;SDS011;52359;42.658;23.320;2022-09-09T11:52:23;22.13;;;7.55;;
43527;SDS011;52359;42.658;23.320;2022-09-09T11:55:09;59.15;;;8.38;;
43527;SDS011;52359;42.658;23.320;2022-09-09T12:03:02;27.23;;;7.15;;
43527;SDS011;52359;42.658;23.320;2022-09-09T12:05:51;16.10;;;6.15;;
43527;SDS011;52359;42.658;23.320;2022-09-09T12:08:21;22.85;;;7.07;;
43527;SDS011;52359;42.658;23.320;2022-09-09T12:13:19;15.65;;;6.25;;
43527;SDS011;52359;42.658;23.320;2022-09-09T12:15:56;17.13;;;6.43;;
43527;SDS011;52359;42.658;23.320;2022-09-09T12:18:41;13.27;;;5.85;;
43527;SDS011;52359;42.658;23.320;2022-09-09T12:21:18;12.20;;;5.65;;
43527;SDS011;52359;42.658;23.320;2022-09-09T12:23:49;13.68;;;5.78;;
43527;SDS011;52359;42.658;23.320;2022-09-09T12:26:22;13.70;;;5.25;;
43527;SDS011;52359;42.658;23.320;2022-09-09T12:29:02;13.32;;;5.57;;
43527;SDS011;52359;42.658;23.320;2022-09-09T12:31:35;18.88;;;5.60;;
43527;SDS011;52359;42.658;23.320;2022-09-09T12:34:10;27.17;;;6.20;;
43527;SDS011;52359;42.658;23.320;2022-09-09T12:36:37;24.58;;;5.70;;
43527;SDS011;52359;42.658;23.320;2022-09-09T12:39:38;27.55;;;6.22;;
43527;SDS011;52359;42.658;23.320;2022-09-09T12:41:57;8.85;;;5.20;;
43527;SDS011;52359;42.658;23.320;2022-09-09T12:44:26;21.55;;;5.68;;
43527;SDS011;52359;42.658;23.320;2022-09-09T12:46:58;11.70;;;6.85;;
43527;SDS011;52359;42.658;23.320;2022-09-09T12:49:30;21.50;;;8.10;;
43527;SDS011;52359;42.658;23.320;2022-09-09T12:52:01;34.25;;;7.70;;
43527;SDS011;52359;42.658;23.320;2022-09-09T12:54:27;25.02;;;6.68;;
43527;SDS011;52359;42.658;23.320;2022-09-09T12:56:53;49.92;;;6.80;;
43527;SDS011;52359;42.658;23.320;2022-09-09T13:00:03;30.95;;;6.97;;
43527;SDS011;52359;42.658;23.320;2022-09-09T13:02:24;16.83;;;5.20;;
43527;SDS011;52359;42.658;23.320;2022-09-09T13:04:50;42.58;;;7.60;;
43527;SDS011;52359;42.658;23.320;2022-09-09T13:07:18;21.23;;;5.43;;
43527;SDS011;52359;42.658;23.320;2022-09-09T13:09:45;23.58;;;5.88;;
43527;SDS011;52359;42.658;23.320;2022-09-09T13:12:13;27.88;;;6.20;;
43527;SDS011;52359;42.658;23.320;2022-09-09T13:14:40;28.58;;;7.00;;
43527;SDS011;52359;42.658;23.320;2022-09-09T13:17:17;39.80;;;8.18;;
43527;SDS011;52359;42.658;23.320;2022-09-09T13:19:44;21.15;;;6.55;;
43527;SDS011;52359;42.658;23.320;2022-09-09T13:22:14;29.98;;;6.55;;
43527;SDS011;52359;42.658;23.320;2022-09-09T13:24:44;24.25;;;6.40;;
43527;SDS011;52359;42.658;23.320;2022-09-09T13:30:23;25.30;;;6.85;;
43527;SDS011;52359;42.658;23.320;2022-09-09T13:35:28;42.85;;;7.80;;
43527;SDS011;52359;42.658;23.320;2022-09-09T13:37:55;25.95;;;7.80;;
43527;SDS011;52359;42.658;23.320;2022-09-09T13:40:22;29.98;;;7.22;;
43527;SDS011;52359;42.658;23.320;2022-09-09T13:42:51;31.38;;;7.07;;
43527;SDS011;52359;42.658;23.320;2022-09-09T13:45:18;38.10;;;7.85;;
43527;SDS011;52359;42.658;23.320;2022-09-09T13:47:48;19.95;;;6.60;;
43527;SDS011;52359;42.658;23.320;2022-09-09T13:50:25;44.13;;;6.97;;
43527;SDS011;52359;42.658;23.320;2022-09-09T13:52:52;38.72;;;8.45;;
43527;SDS011;52359;42.658;23.320;2022-09-09T13:55:18;24.67;;;6.60;;
43527;SDS011;52359;42.658;23.320;2022-09-09T13:57:53;32.45;;;6.10;;
43527;SDS011;52359;42.658;23.320;2022-09-09T14:00:20;25.63;;;7.00;;
43527;SDS011;52359;42.658;23.320;2022-09-09T14:02:46;19.13;;;7.47;;
43527;SDS011;52359;42.658;23.320;2022-09-09T14:05:12;22.33;;;6.53;;
43527;SDS011;52359;42.658;23.320;2022-09-09T14:07:40;25.55;;;5.80;;
43527;SDS011;52359;42.658;23.320;2022-09-09T14:10:07;60.03;;;8.18;;
43527;SDS011;52359;42.658;23.320;2022-09-09T14:12:33;37.95;;;7.35;;
43527;SDS011;52359;42.658;23.320;2022-09-09T14:15:00;21.45;;;5.90;;
43527;SDS011;52359;42.658;23.320;2022-09-09T14:17:26;16.80;;;6.22;;
43527;SDS011;52359;42.658;23.320;2022-09-09T14:19:56;28.98;;;6.35;;
43527;SDS011;52359;42.658;23.320;2022-09-09T14:22:22;19.95;;;6.38;;
43527;SDS011;52359;42.658;23.320;2022-09-09T14:24:48;23.45;;;6.15;;
43527;SDS011;52359;42.658;23.320;2022-09-09T14:27:16;13.75;;;5.72;;
43527;SDS011;52359;42.658;23.320;2022-09-09T14:29:42;19.00;;;6.15;;
43527;SDS011;52359;42.658;23.320;2022-09-09T14:32:09;13.98;;;6.20;;
43527;SDS011;52359;42.658;23.320;2022-09-09T14:34:35;14.38;;;6.13;;
43527;SDS011;52359;42.658;23.320;2022-09-09T14:37:01;18.30;;;6.00;;
43527;SDS011;52359;42.658;23.320;2022-09-09T14:39:27;23.05;;;5.45;;
43527;SDS011;52359;42.658;23.320;2022-09-09T14:41:53;19.40;;;6.07;;
43527;SDS011;52359;42.658;23.320;2022-09-09T14:44:19;13.45;;;5.95;;
43527;SDS011;52359;42.658;23.320;2022-09-09T14:46:46;17.20;;;5.68;;
43527;SDS011;52359;42.658;23.320;2022-09-09T14:49:15;29.15;;;6.25;;
43527;SDS011;52359;42.658;23.320;2022-09-09T14:51:41;51.38;;;8.13;;
43527;SDS011;52359;42.658;23.320;2022-09-09T14:54:07;56.20;;;9.10;;
43527;SDS011;52359;42.658;23.320;2022-09-09T14:56:33;37.55;;;6.60;;
43527;SDS011;52359;42.658;23.320;2022-09-09T14:59:00;27.52;;;6.70;;
43527;SDS011;52359;42.658;23.320;2022-09-09T15:01:27;19.45;;;6.50;;
43527;SDS011;52359;42.658;23.320;2022-09-09T15:03:55;27.50;;;6.13;;
43527;SDS011;52359;42.658;23.320;2022-09-09T15:06:23;28.83;;;6.90;;
43527;SDS011;52359;42.658;23.320;2022-09-09T15:08:50;30.58;;;7.18;;
43527;SDS011;52359;42.658;23.320;2022-09-09T15:11:17;24.92;;;6.28;;
43527;SDS011;52359;42.658;23.320;2022-09-09T15:13:43;21.65;;;6.93;;
43527;SDS011;52359;42.658;23.320;2022-09-09T15:16:10;35.08;;;12.70;;
43527;SDS011;52359;42.658;23.320;2022-09-09T15:18:37;23.13;;;7.95;;
43527;SDS011;52359;42.658;23.320;2022-09-09T15:21:07;17.13;;;7.05;;
43527;SDS011;52359;42.658;23.320;2022-09-09T15:23:34;14.35;;;5.65;;
43527;SDS011;52359;42.658;23.320;2022-09-09T15:26:01;28.88;;;6.68;;
43527;SDS011;52359;42.658;23.320;2022-09-09T15:28:27;16.80;;;5.97;;
43527;SDS011;52359;42.658;23.320;2022-09-09T15:30:53;13.05;;;6.13;;
43527;SDS011;52359;42.658;23.320;2022-09-09T15:33:20;21.58;;;6.38;;
43527;SDS011;52359;42.658;23.320;2022-09-09T15:35:46;17.00;;;5.88;;
43527;SDS011;52359;42.658;23.320;2022-09-09T15:38:12;25.60;;;5.80;;
43527;SDS011;52359;42.658;23.320;2022-09-09T15:40:41;17.30;;;6.18;;
43527;SDS011;52359;42.658;23.320;2022-09-09T15:43:07;24.00;;;6.25;;
43527;SDS011;52359;42.658;23.320;2022-09-09T15:45:34;14.27;;;6.65;;
43527;SDS011;52359;42.658;23.320;2022-09-09T15:48:01;25.35;;;7.28;;
43527;SDS011;52359;42.658;23.320;2022-09-09T15:50:27;28.20;;;8.18;;
43527;SDS011;52359;42.658;23.320;2022-09-09T15:52:56;32.72;;;6.80;;
43527;SDS011;52359;42.658;23.320;2022-09-09T15:55:22;52.78;;;8.07;;
43527;SDS011;52359;42.658;23.320;2022-09-09T15:57:51;43.90;;;7.82;;
43527;SDS011;52359;42.658;23.320;2022-09-09T16:00:18;32.58;;;7.70;;
43527;SDS011;52359;42.658;23.320;2022-09-09T16:02:44;34.05;;;7.93;;
43527;SDS011;52359;42.658;23.320;2022-09-09T16:05:11;18.15;;;7.05;;
43527;SDS011;52359;42.658;23.320;2022-09-09T16:07:37;26.73;;;10.98;;
43527;SDS011;52359;42.658;23.320;2022-09-09T16:10:04;25.20;;;12.13;;
43527;SDS011;52359;42.658;23.320;2022-09-09T16:12:30;22.02;;;8.35;;
43527;SDS011;52359;42.658;23.320;2022-09-09T16:14:57;17.15;;;7.10;;
43527;SDS011;52359;42.658;23.320;2022-09-09T16:17:24;19.55;;;7.45;;
43527;SDS011;52359;42.658;23.320;2022-09-09T16:19:50;27.38;;;7.38;;
43527;SDS011;52359;42.658;23.320;2022-09-09T16:22:16;17.63;;;8.20;;
43527;SDS011;52359;42.658;23.320;2022-09-09T16:24:43;29.85;;;12.27;;
43527;SDS011;52359;42.658;23.320;2022-09-09T16:27:10;23.48;;;12.02;;
43527;SDS011;52359;42.658;23.320;2022-09-09T16:29:36;19.08;;;8.75;;
43527;SDS011;52359;42.658;23.320;2022-09-09T16:32:02;21.83;;;7.70;;